Time;durP1;ratioP1;P1;durP2;ratioP2;P2;SDS_P1;SDS_P2;PMS_P1;PMS_P2;Temp;Humidity;BMP_temperature;BMP_pressure;BME280_temperature;BME280_humidity;BME280_pressure;Samples;Min_cycle;Max_cycle;Signal;HPM_P1;HPM_P2
2020/12/28 00:00:55;;;;;;;13.57;7.13;;;-1.20;99.90;;;;;;4892204;29;20064;-80
2020/12/28 00:03:20;;;;;;;13.70;7.20;;;-1.20;99.90;;;;;;4913555;29;20488;-80
2020/12/28 00:05:46;;;;;;;13.10;6.27;;;-1.20;99.90;;;;;;4891194;29;20062;-80
2020/12/28 00:08:11;;;;;;;14.40;7.77;;;-1.20;99.90;;;;;;4888146;29;20048;-80
2020/12/28 00:10:37;;;;;;;17.77;8.93;;;-1.20;99.90;;;;;;4901849;29;20135;-79
2020/12/28 00:13:03;;;;;;;13.80;6.60;;;-1.20;99.90;;;;;;4907461;29;20790;-80
2020/12/28 00:15:29;;;;;;;13.83;7.37;;;-1.20;99.90;;;;;;4908515;29;20044;-81
2020/12/28 00:17:57;;;;;;;12.83;7.13;;;-1.20;99.90;;;;;;4903187;29;20104;-79
2020/12/28 00:20:27;;;;;;;14.63;6.90;;;-1.20;99.90;;;;;;4907956;29;20092;-80
2020/12/28 00:22:54;;;;;;;12.53;6.97;;;-1.10;99.90;;;;;;4907971;29;20048;-80
2020/12/28 00:25:27;;;;;;;14.33;6.93;;;-1.10;99.90;;;;;;4899681;29;20079;-80
2020/12/28 00:27:53;;;;;;;15.10;6.93;;;-1.10;99.90;;;;;;4908154;29;20032;-80
2020/12/28 00:30:19;;;;;;;11.40;7.57;;;-1.10;99.90;;;;;;4901853;29;20095;-80
2020/12/28 00:32:45;;;;;;;12.53;7.43;;;-1.10;99.90;;;;;;4907084;29;20032;-80
2020/12/28 00:35:12;;;;;;;13.07;7.23;;;-1.10;99.90;;;;;;4909743;29;20091;-78
2020/12/28 00:37:38;;;;;;;15.77;7.07;;;-1.20;99.90;;;;;;4910019;29;20774;-79
2020/12/28 00:40:06;;;;;;;14.40;7.23;;;-1.10;99.90;;;;;;4885663;29;20529;-79
2020/12/28 00:42:31;;;;;;;12.67;7.23;;;-1.10;99.90;;;;;;4904649;29;20104;-79
2020/12/28 00:44:58;;;;;;;12.90;7.63;;;-1.10;99.90;;;;;;4914441;29;20104;-79
2020/12/28 00:47:24;;;;;;;16.33;7.83;;;-1.10;99.90;;;;;;4926733;29;20044;-80
2020/12/28 00:49:49;;;;;;;14.40;6.70;;;-1.00;99.90;;;;;;4934942;29;20044;-80
2020/12/28 00:52:15;;;;;;;12.33;6.97;;;-0.90;99.90;;;;;;4918633;29;21032;-80
2020/12/28 00:54:41;;;;;;;13.83;6.90;;;-0.90;99.90;;;;;;4902006;29;20781;-81
2020/12/28 00:57:06;;;;;;;14.67;7.43;;;-0.80;99.90;;;;;;4918687;29;20029;-81
2020/12/28 00:59:32;;;;;;;14.13;7.70;;;-0.80;99.90;;;;;;4921022;29;20044;-80
2020/12/28 01:01:58;;;;;;;14.20;7.60;;;-0.80;99.90;;;;;;4916988;29;20036;-80
2020/12/28 01:04:24;;;;;;;12.17;7.07;;;-0.70;99.90;;;;;;4904432;29;20040;-81
2020/12/28 01:06:50;;;;;;;12.03;7.60;;;-0.70;99.90;;;;;;4906341;29;20029;-79
2020/12/28 01:09:16;;;;;;;13.40;7.20;;;-0.70;99.90;;;;;;4906878;29;20055;-80
2020/12/28 01:11:42;;;;;;;12.60;6.43;;;-0.70;99.90;;;;;;4911155;29;20558;-81
2020/12/28 01:14:09;;;;;;;14.47;7.13;;;-0.60;99.90;;;;;;4902883;29;20048;-79
2020/12/28 01:16:35;;;;;;;15.57;7.37;;;-0.60;99.90;;;;;;4900434;29;20503;-79
2020/12/28 01:19:01;;;;;;;13.97;7.10;;;-0.60;99.90;;;;;;4912019;29;20032;-79
2020/12/28 01:21:27;;;;;;;11.70;7.17;;;-0.50;99.90;;;;;;4905374;29;20064;-80
2020/12/28 01:23:52;;;;;;;12.10;6.70;;;-0.50;99.90;;;;;;4905761;29;20127;-78
2020/12/28 01:26:18;;;;;;;11.23;6.80;;;-0.50;99.90;;;;;;4908119;29;20040;-79
2020/12/28 01:28:44;;;;;;;12.97;6.80;;;-0.50;99.90;;;;;;4908049;29;20035;-79
2020/12/28 01:31:10;;;;;;;14.50;8.37;;;-0.50;99.90;;;;;;4911225;29;20028;-79
2020/12/28 01:33:36;;;;;;;15.00;7.23;;;-0.50;99.90;;;;;;4907579;29;20043;-80
2020/12/28 01:36:03;;;;;;;13.80;7.67;;;-0.40;99.90;;;;;;4904900;29;20061;-78
2020/12/28 01:38:29;;;;;;;10.73;6.70;;;-0.50;99.90;;;;;;4908647;29;20539;-77
2020/12/28 01:40:56;;;;;;;15.47;6.70;;;-0.50;99.90;;;;;;4907228;29;20047;-79
2020/12/28 01:43:24;;;;;;;12.73;6.90;;;-0.50;99.90;;;;;;4914057;29;20028;-80
2020/12/28 01:45:50;;;;;;;15.03;6.80;;;-0.40;99.90;;;;;;4913024;29;20107;-78
2020/12/28 01:48:15;;;;;;;12.70;6.13;;;-0.40;99.90;;;;;;4907520;29;20104;-78
2020/12/28 01:50:42;;;;;;;10.50;5.73;;;-0.40;99.90;;;;;;4909349;29;20040;-78
2020/12/28 01:53:08;;;;;;;11.57;6.30;;;-0.40;99.90;;;;;;4911627;29;20042;-80
2020/12/28 01:55:34;;;;;;;11.47;6.47;;;-0.40;99.90;;;;;;4912425;29;20056;-79
2020/12/28 01:58:00;;;;;;;11.30;6.10;;;-0.40;99.90;;;;;;4907655;29;20021;-79
2020/12/28 02:00:26;;;;;;;12.30;6.50;;;-0.40;99.90;;;;;;4912876;29;20043;-80
2020/12/28 02:02:51;;;;;;;10.23;6.10;;;-0.50;99.90;;;;;;4905604;29;20058;-78
2020/12/28 02:05:17;;;;;;;11.23;6.37;;;-0.50;99.90;;;;;;4912877;29;20036;-78
2020/12/28 02:07:45;;;;;;;12.53;6.33;;;-0.50;99.90;;;;;;4904929;29;20473;-79
2020/12/28 02:10:10;;;;;;;12.27;6.33;;;-0.50;99.90;;;;;;4915497;29;20108;-80
2020/12/28 02:12:37;;;;;;;10.87;6.10;;;-0.60;99.90;;;;;;4915685;29;20115;-79
2020/12/28 02:15:06;;;;;;;9.83;5.47;;;-0.60;99.90;;;;;;4908718;29;20579;-78
2020/12/28 02:17:32;;;;;;;11.60;5.63;;;-0.50;99.90;;;;;;4909933;29;20032;-77
2020/12/28 02:19:58;;;;;;;9.33;5.33;;;-0.60;99.90;;;;;;4903108;29;20492;-78
2020/12/28 02:22:24;;;;;;;8.30;5.10;;;-0.50;99.90;;;;;;4910386;29;20032;-77
2020/12/28 02:24:49;;;;;;;9.03;4.70;;;-0.40;99.90;;;;;;4905145;29;20039;-76
2020/12/28 02:27:15;;;;;;;8.83;5.03;;;-0.30;99.90;;;;;;4910035;29;20029;-78
2020/12/28 02:29:41;;;;;;;13.93;5.50;;;-0.20;99.90;;;;;;4907501;29;20154;-79
2020/12/28 02:32:07;;;;;;;8.50;4.97;;;-0.20;99.90;;;;;;4903985;29;20056;-79
2020/12/28 02:34:32;;;;;;;8.93;5.30;;;-0.20;99.90;;;;;;4909354;29;20047;-79
2020/12/28 02:36:58;;;;;;;9.67;5.10;;;-0.20;99.90;;;;;;4907123;29;20021;-78
2020/12/28 02:39:24;;;;;;;8.27;4.83;;;-0.30;99.90;;;;;;4913080;29;20079;-78
2020/12/28 02:41:49;;;;;;;12.33;5.63;;;-0.20;99.90;;;;;;4912620;29;20020;-80
2020/12/28 02:44:15;;;;;;;9.63;5.20;;;-0.30;99.90;;;;;;4906120;29;20095;-77
2020/12/28 02:46:40;;;;;;;11.57;5.70;;;-0.30;99.90;;;;;;4917642;29;20040;-78
2020/12/28 02:49:06;;;;;;;10.07;5.77;;;-0.30;99.90;;;;;;4922761;29;20028;-78
2020/12/28 02:51:32;;;;;;;9.50;5.53;;;-0.40;99.90;;;;;;4911833;29;20028;-78
2020/12/28 02:53:57;;;;;;;10.97;6.00;;;-0.30;99.90;;;;;;4920615;29;20875;-77
2020/12/28 02:56:23;;;;;;;11.43;5.80;;;-0.30;99.90;;;;;;4906179;29;20491;-77
2020/12/28 02:58:48;;;;;;;11.67;5.60;;;-0.30;99.90;;;;;;4906993;29;20116;-77
2020/12/28 03:01:14;;;;;;;9.63;5.27;;;-0.30;99.90;;;;;;4909848;29;20031;-77
2020/12/28 03:03:40;;;;;;;10.83;5.10;;;-0.30;99.90;;;;;;4905546;29;20092;-78
2020/12/28 03:06:05;;;;;;;10.90;5.73;;;-0.20;99.90;;;;;;4909171;29;20095;-78
2020/12/28 03:08:31;;;;;;;10.00;5.00;;;-0.10;99.90;;;;;;4905775;29;20433;-78
2020/12/28 03:10:56;;;;;;;10.90;5.33;;;-0.10;99.90;;;;;;4914427;29;20040;-77
2020/12/28 03:13:22;;;;;;;8.90;4.70;;;-0.10;99.90;;;;;;4915209;29;20063;-80
2020/12/28 03:15:48;;;;;;;9.17;4.93;;;-0.10;99.90;;;;;;4910456;29;20479;-79
2020/12/28 03:18:14;;;;;;;10.50;5.10;;;0.00;99.90;;;;;;4908767;29;20139;-78
2020/12/28 03:20:40;;;;;;;9.27;4.60;;;0.00;99.90;;;;;;4901870;29;20100;-78
2020/12/28 03:23:05;;;;;;;9.90;5.17;;;0.00;99.90;;;;;;4909499;29;20511;-77
2020/12/28 03:25:31;;;;;;;8.23;5.00;;;0.00;99.90;;;;;;4909885;29;20025;-79
2020/12/28 03:27:56;;;;;;;9.67;4.80;;;0.00;99.90;;;;;;4914055;29;20433;-79
2020/12/28 03:30:22;;;;;;;9.27;5.32;;;-0.10;99.90;;;;;;4924961;29;20024;-80
2020/12/28 03:32:48;;;;;;;10.30;5.23;;;-0.10;99.90;;;;;;4928018;29;20024;-79
2020/12/28 03:35:13;;;;;;;7.17;4.70;;;-0.20;99.90;;;;;;4918238;29;20048;-80
2020/12/28 03:37:39;;;;;;;8.67;5.03;;;-0.20;99.90;;;;;;4914334;29;20147;-80
2020/12/28 03:40:05;;;;;;;8.53;5.27;;;-0.20;99.90;;;;;;4906332;29;20153;-79
2020/12/28 03:42:31;;;;;;;9.97;5.50;;;-0.20;99.90;;;;;;4911137;29;20126;-80
2020/12/28 03:44:56;;;;;;;10.17;5.03;;;-0.20;99.90;;;;;;4915004;29;20043;-78
2020/12/28 03:47:22;;;;;;;8.07;4.53;;;-0.20;99.90;;;;;;4905455;29;20112;-80
2020/12/28 03:49:48;;;;;;;9.10;4.70;;;-0.20;99.90;;;;;;4895251;29;20056;-79
2020/12/28 03:52:13;;;;;;;9.93;5.03;;;-0.20;99.90;;;;;;4910312;29;20111;-80
2020/12/28 03:54:39;;;;;;;10.53;5.07;;;-0.20;99.90;;;;;;4912665;29;20115;-80
2020/12/28 03:57:05;;;;;;;9.90;5.40;;;-0.20;99.90;;;;;;4911433;29;20486;-79
2020/12/28 03:59:31;;;;;;;9.30;5.40;;;-0.20;99.90;;;;;;4904497;29;20043;-79
2020/12/28 04:01:56;;;;;;;9.80;5.30;;;-0.10;99.90;;;;;;4904063;29;20036;-78
2020/12/28 04:04:22;;;;;;;7.97;4.70;;;-0.10;99.90;;;;;;4910206;29;20040;-79
2020/12/28 04:06:47;;;;;;;8.57;4.60;;;0.00;99.90;;;;;;4911871;29;20123;-79
2020/12/28 04:09:13;;;;;;;8.33;3.83;;;0.10;99.90;;;;;;4905936;29;20039;-80
2020/12/28 04:11:38;;;;;;;11.37;4.70;;;0.40;99.90;;;;;;4905789;29;20114;-81
2020/12/28 04:14:06;;;;;;;9.23;4.70;;;0.30;99.90;;;;;;4910092;29;20131;-81
2020/12/28 04:16:31;;;;;;;9.07;4.80;;;0.40;99.90;;;;;;4895060;29;20036;-81
2020/12/28 04:18:57;;;;;;;9.53;5.10;;;0.30;99.90;;;;;;4907773;29;20041;-81
2020/12/28 04:21:22;;;;;;;9.90;4.87;;;0.20;99.90;;;;;;4904700;29;20437;-80
2020/12/28 04:23:48;;;;;;;9.53;4.70;;;0.10;99.90;;;;;;4905576;29;20040;-81
2020/12/28 04:26:14;;;;;;;8.73;4.13;;;0.20;99.90;;;;;;4912335;29;20135;-80
2020/12/28 04:28:39;;;;;;;13.00;5.00;;;0.30;99.90;;;;;;4911291;29;20452;-80
2020/12/28 04:31:10;;;;;;;10.83;5.60;;;0.40;99.90;;;;;;4890249;29;20040;-80
2020/12/28 04:33:37;;;;;;;13.70;5.40;;;0.40;99.90;;;;;;4909608;29;20067;-79
2020/12/28 04:36:03;;;;;;;7.40;4.30;;;0.50;99.90;;;;;;4912749;29;20044;-80
2020/12/28 04:38:29;;;;;;;9.05;4.35;;;0.70;99.90;;;;;;4913436;29;20108;-79
2020/12/28 04:40:55;;;;;;;9.75;4.60;;;0.60;99.90;;;;;;4910508;29;20468;-80
2020/12/28 04:43:20;;;;;;;11.07;4.85;;;0.70;99.90;;;;;;4902682;29;20458;-80
2020/12/28 04:45:46;;;;;;;8.77;4.57;;;0.80;99.90;;;;;;4908337;29;20071;-79
2020/12/28 04:48:12;;;;;;;10.10;4.70;;;0.70;99.90;;;;;;4913463;29;20033;-81
2020/12/28 04:50:39;;;;;;;8.53;5.13;;;0.60;99.90;;;;;;4933461;29;20068;-82
2020/12/28 04:53:07;;;;;;;9.60;4.32;;;0.60;99.90;;;;;;4930924;29;20080;-83
2020/12/28 04:55:32;;;;;;;9.60;5.23;;;0.60;99.90;;;;;;4913372;29;20052;-80
2020/12/28 04:57:59;;;;;;;9.10;4.45;;;0.60;99.90;;;;;;4905998;29;20035;-80
2020/12/28 05:00:26;;;;;;;7.50;4.47;;;0.60;99.90;;;;;;4907726;29;20044;-83
2020/12/28 05:02:51;;;;;;;8.88;4.90;;;0.60;99.90;;;;;;4912716;29;20458;-81
2020/12/28 05:05:17;;;;;;;11.88;4.45;;;0.60;99.90;;;;;;4891707;29;20064;-81
2020/12/28 05:07:50;;;;;;;7.35;4.40;;;0.60;99.90;;;;;;4909221;29;20028;-82
2020/12/28 05:10:26;;;;;;;8.75;4.35;;;0.70;99.90;;;;;;4910494;29;20055;-81
2020/12/28 05:12:52;;;;;;;10.13;4.20;;;0.60;99.90;;;;;;4898768;29;20123;-83
2020/12/28 05:15:19;;;;;;;8.00;4.10;;;0.60;99.90;;;;;;4910482;29;20123;-82
2020/12/28 05:17:54;;;;;;;6.33;4.10;;;0.60;99.90;;;;;;4909007;29;20032;-81
2020/12/28 05:20:24;;;;;;;7.63;4.10;;;0.70;99.90;;;;;;4915551;29;20087;-79
2020/12/28 05:22:54;;;;;;;7.03;3.83;;;0.70;99.90;;;;;;4906735;29;20027;-80
2020/12/28 05:25:22;;;;;;;7.30;3.90;;;0.70;99.90;;;;;;4907950;29;20067;-79
2020/12/28 05:27:49;;;;;;;8.90;4.07;;;0.70;99.90;;;;;;4907372;29;20036;-80
2020/12/28 05:30:19;;;;;;;8.07;3.97;;;0.70;99.90;;;;;;4908173;29;20087;-77
2020/12/28 05:32:45;;;;;;;;;;;0.70;99.90;;;;;;4910436;29;20032;-77
2020/12/28 05:35:14;;;;;;;7.38;4.30;;;0.60;99.90;;;;;;4903678;29;19975;-79
2020/12/28 05:37:40;;;;;;;7.73;4.03;;;0.60;99.90;;;;;;4908969;29;20033;-79
2020/12/28 05:40:09;;;;;;;6.33;3.90;;;0.70;99.90;;;;;;4903603;29;20043;-79
2020/12/28 05:42:35;;;;;;;9.18;3.75;;;0.70;99.90;;;;;;4913898;29;20016;-78
2020/12/28 05:45:07;;;;;;;8.38;4.10;;;0.70;99.90;;;;;;4910861;29;20043;-79
2020/12/28 05:47:40;;;;;;;6.43;3.35;;;0.70;99.90;;;;;;4915889;29;20028;-80
2020/12/28 05:50:05;;;;;;;6.07;3.33;;;0.80;99.90;;;;;;4913425;29;20087;-79
2020/12/28 05:52:35;;;;;;;6.00;3.00;;;0.80;99.90;;;;;;4916155;29;20499;-80
2020/12/28 05:55:02;;;;;;;5.60;3.00;;;0.80;99.90;;;;;;4911810;29;20056;-79
2020/12/28 05:57:29;;;;;;;6.57;3.40;;;0.70;99.90;;;;;;4910367;29;20047;-77
2020/12/28 05:59:57;;;;;;;8.27;3.30;;;0.60;99.90;;;;;;4910400;29;20032;-81
2020/12/28 06:02:27;;;;;;;6.70;3.57;;;0.60;99.90;;;;;;4915423;29;20028;-79
2020/12/28 06:04:53;;;;;;;5.90;3.43;;;0.60;99.90;;;;;;4911324;29;20425;-81
2020/12/28 06:07:21;;;;;;;5.80;3.30;;;0.50;99.90;;;;;;4912669;29;20032;-82
2020/12/28 06:09:54;;;;;;;6.73;3.47;;;0.50;99.90;;;;;;4916943;29;20123;-80
2020/12/28 06:12:19;;;;;;;6.03;3.30;;;0.50;99.90;;;;;;4922941;29;20043;-80
2020/12/28 06:14:45;;;;;;;6.43;3.40;;;0.50;99.90;;;;;;4926736;29;20047;-81
2020/12/28 06:17:12;;;;;;;8.97;3.57;;;0.50;99.90;;;;;;4918855;29;20384;-80
2020/12/28 06:19:39;;;;;;;6.47;3.17;;;0.50;99.90;;;;;;4916851;29;20110;-80
2020/12/28 06:22:22;;;;;;;6.27;3.60;;;0.50;99.90;;;;;;4906572;29;20068;-80
2020/12/28 06:25:05;;;;;;;8.47;3.30;;;0.50;99.90;;;;;;4913544;29;20107;-80
2020/12/28 06:27:32;;;;;;;8.53;3.53;;;0.60;99.90;;;;;;4908324;29;20030;-83
2020/12/28 06:30:19;;;;;;;7.00;3.77;;;0.80;99.90;;;;;;4894708;29;20572;-80
2020/12/28 06:32:48;;;;;;;10.37;3.90;;;0.80;99.90;;;;;;4912766;29;20016;-82
2020/12/28 06:35:16;;;;;;;7.57;4.50;;;0.80;99.90;;;;;;4907502;29;20452;-82
2020/12/28 06:37:54;;;;;;;11.83;5.60;;;0.80;99.90;;;;;;4909274;29;20038;-83
2020/12/28 06:40:31;;;;;;;9.83;5.33;;;0.70;99.90;;;;;;4913695;29;20039;-84
2020/12/28 06:43:10;;;;;;;7.47;4.30;;;0.70;99.90;;;;;;4909037;29;20037;-82
2020/12/28 06:45:37;;;;;;;10.45;5.05;;;0.70;99.90;;;;;;4904685;29;20025;-80
2020/12/28 06:48:03;;;;;;;11.40;5.13;;;0.70;99.90;;;;;;4905593;29;20038;-81
2020/12/28 06:50:28;;;;;;;12.50;5.10;;;0.70;99.90;;;;;;4935269;29;20032;-83
2020/12/28 06:52:54;;;;;;;12.43;5.53;;;0.70;99.90;;;;;;4930915;29;20055;-82
2020/12/28 06:55:23;;;;;;;9.53;5.30;;;0.60;99.90;;;;;;4926524;29;20040;-81
2020/12/28 06:57:49;;;;;;;10.23;4.90;;;0.70;99.90;;;;;;4911609;29;20116;-79
2020/12/28 07:00:21;;;;;;;10.07;5.10;;;0.70;99.90;;;;;;4912804;29;20119;-79
2020/12/28 07:02:52;;;;;;;10.53;5.30;;;0.80;99.90;;;;;;4908869;29;20028;-81
2020/12/28 07:05:25;;;;;;;8.77;4.47;;;0.80;99.90;;;;;;4906144;29;20048;-79
2020/12/28 07:07:51;;;;;;;9.23;5.00;;;0.80;99.90;;;;;;4901822;29;20523;-79
2020/12/28 07:10:19;;;;;;;10.73;5.77;;;0.70;99.90;;;;;;4913180;29;20099;-79
2020/12/28 07:12:46;;;;;;;9.97;5.47;;;0.70;99.90;;;;;;4908925;29;20794;-81
2020/12/28 07:15:12;;;;;;;13.60;5.60;;;0.70;99.90;;;;;;4913743;29;20047;-80
2020/12/28 07:17:38;;;;;;;11.40;4.93;;;0.70;99.90;;;;;;4912300;29;20024;-79
2020/12/28 07:20:07;;;;;;;10.80;5.47;;;0.70;99.90;;;;;;4909386;29;20494;-77
2020/12/28 07:22:36;;;;;;;10.73;5.07;;;0.80;99.90;;;;;;4911542;29;20055;-78
2020/12/28 07:25:03;;;;;;;10.63;5.60;;;1.00;99.90;;;;;;4911897;29;20092;-77
2020/12/28 07:27:29;;;;;;;9.90;5.07;;;1.10;99.90;;;;;;4910469;29;20769;-77
2020/12/28 07:29:55;;;;;;;10.77;6.23;;;1.10;99.90;;;;;;4905250;29;20036;-77
2020/12/28 07:32:20;;;;;;;11.90;5.63;;;1.10;99.90;;;;;;4914236;29;20498;-76
2020/12/28 07:34:55;;;;;;;13.95;5.50;;;1.10;99.90;;;;;;4915251;29;20036;-75
2020/12/28 07:37:22;;;;;;;11.23;5.03;;;1.10;99.90;;;;;;4908121;29;20040;-77
2020/12/28 07:39:49;;;;;;;15.77;6.70;;;1.10;99.90;;;;;;4910611;29;20468;-77
2020/12/28 07:42:21;;;;;;;10.90;5.93;;;1.20;99.90;;;;;;4920709;29;20138;-74
2020/12/28 07:44:58;;;;;;;11.48;5.38;;;1.20;99.90;;;;;;4926228;29;20091;-77
2020/12/28 07:47:46;;;;;;;11.13;5.50;;;1.20;99.90;;;;;;4917916;29;20033;-77
2020/12/28 07:50:15;;;;;;;16.63;8.13;;;1.20;99.90;;;;;;4913896;29;20047;-76
2020/12/28 07:52:48;;;;;;;13.38;6.07;;;1.20;99.90;;;;;;4904734;29;20433;-76
2020/12/28 07:55:18;;;;;;;10.57;5.03;;;1.30;99.90;;;;;;4912131;29;20891;-76
2020/12/28 07:58:11;;;;;;;13.02;5.03;;;1.30;99.90;;;;;;4913240;29;20032;-76
2020/12/28 08:00:44;;;;;;;10.15;5.10;;;1.30;99.90;;;;;;4909657;29;20032;-77
2020/12/28 08:03:16;;;;;;;12.50;6.32;;;1.40;99.90;;;;;;4907178;29;20032;-78
2020/12/28 08:05:43;;;;;;;12.30;6.03;;;1.40;99.90;;;;;;4902973;29;20103;-78
2020/12/28 08:08:25;;;;;;;11.02;5.88;;;1.40;99.90;;;;;;4909176;29;20039;-78
2020/12/28 08:10:58;;;;;;;11.10;5.68;;;1.40;99.90;;;;;;4912032;29;20024;-77
2020/12/28 08:13:29;;;;;;;16.75;6.05;;;1.40;99.90;;;;;;4909062;29;20428;-78
2020/12/28 08:16:12;;;;;;;11.55;5.95;;;1.40;99.90;;;;;;4914958;29;20039;-83
2020/12/28 08:18:48;;;;;;;9.98;4.35;;;1.40;99.90;;;;;;4912523;29;20020;-80
2020/12/28 08:21:15;;;;;;;16.38;5.68;;;1.50;99.90;;;;;;4906838;29;20095;-77
2020/12/28 08:23:40;;;;;;;9.02;4.95;;;1.50;99.90;;;;;;4917554;29;20499;-79
2020/12/28 08:26:26;;;;;;;13.57;5.00;;;1.50;99.90;;;;;;4913922;29;20035;-86
2020/12/28 08:28:54;;;;;;;12.15;5.53;;;1.50;99.90;;;;;;4926420;29;20043;-81
2020/12/28 08:31:36;;;;;;;14.27;5.32;;;1.60;99.90;;;;;;4916104;29;20032;-81
2020/12/28 08:34:06;;;;;;;14.73;5.90;;;1.60;99.90;;;;;;4908801;29;20020;-80
2020/12/28 08:36:34;;;;;;;11.23;4.93;;;1.60;99.90;;;;;;4906223;29;20067;-79
2020/12/28 08:39:21;;;;;;;10.70;4.80;;;1.70;99.90;;;;;;4889152;29;20130;-80
2020/12/28 08:42:02;;;;;;;10.95;4.47;;;1.70;99.90;;;;;;4911158;29;20111;-80
2020/12/28 08:44:30;;;;;;;9.35;4.10;;;1.70;99.90;;;;;;4913893;29;20103;-80
2020/12/28 08:46:56;;;;;;;11.48;5.10;;;1.70;99.90;;;;;;4906340;29;20024;-81
2020/12/28 08:49:29;;;;;;;14.37;4.87;;;1.70;99.90;;;;;;4909731;29;20047;-81
2020/12/28 08:51:55;;;;;;;8.00;3.60;;;1.70;99.90;;;;;;4933317;29;20040;-82
2020/12/28 08:56:06;;;;;;;9.48;3.40;;;1.80;99.90;;;;;;5111046;27;20348;-81
2020/12/28 08:58:32;;;;;;;9.23;3.80;;;1.90;99.90;;;;;;5085847;28;20098;-80
2020/12/28 09:01:03;;;;;;;10.18;3.72;;;1.80;99.90;;;;;;5084817;28;20038;-79
2020/12/28 09:03:29;;;;;;;9.50;4.10;;;1.90;99.90;;;;;;5085639;28;20021;-80
2020/12/28 09:05:55;;;;;;;9.30;4.43;;;1.80;99.90;;;;;;5086628;28;20159;-80
2020/12/28 09:08:20;;;;;;;8.25;4.18;;;1.90;99.90;;;;;;5087901;28;20470;-82
2020/12/28 09:10:46;;;;;;;9.57;4.20;;;1.90;99.90;;;;;;5085184;28;20059;-80
2020/12/28 09:13:11;;;;;;;7.93;4.20;;;1.90;99.90;;;;;;5084771;28;20033;-80
2020/12/28 09:15:37;;;;;;;7.97;4.07;;;1.90;99.90;;;;;;5082618;28;20041;-82
2020/12/28 09:18:02;;;;;;;9.15;3.65;;;1.90;99.90;;;;;;5086062;28;20052;-81
2020/12/28 09:20:28;;;;;;;9.57;4.53;;;1.90;99.90;;;;;;5085577;28;20032;-80
2020/12/28 09:22:53;;;;;;;10.05;4.78;;;1.90;99.90;;;;;;5080822;28;20021;-79
2020/12/28 09:25:19;;;;;;;7.63;4.55;;;1.80;99.90;;;;;;5085019;28;20036;-78
2020/12/28 09:27:45;;;;;;;8.30;4.20;;;1.90;99.90;;;;;;5090868;28;20112;-81
2020/12/28 09:30:11;;;;;;;8.13;4.32;;;1.80;99.90;;;;;;5087761;28;20135;-81
2020/12/28 09:32:36;;;;;;;12.48;4.50;;;1.80;99.90;;;;;;5085102;28;20040;-79
2020/12/28 09:35:02;;;;;;;9.40;4.25;;;1.80;99.90;;;;;;5081097;28;20054;-76
2020/12/28 09:37:28;;;;;;;10.10;4.95;;;1.90;99.90;;;;;;5081865;28;20032;-76
2020/12/28 09:39:54;;;;;;;13.00;4.82;;;1.90;99.90;;;;;;5084573;28;20028;-76
2020/12/28 09:42:19;;;;;;;11.25;4.63;;;1.90;99.90;;;;;;5085216;28;20082;-76
2020/12/28 09:44:45;;;;;;;10.68;5.10;;;1.90;99.90;;;;;;5086785;28;20016;-75
2020/12/28 09:47:10;;;;;;;9.00;4.95;;;2.00;99.90;;;;;;5091232;28;20043;-77
2020/12/28 09:49:36;;;;;;;10.07;5.10;;;2.00;99.90;;;;;;5089061;28;20024;-78
2020/12/28 09:52:02;;;;;;;8.95;4.38;;;2.00;99.90;;;;;;5092882;28;20073;-76
2020/12/28 09:54:28;;;;;;;9.50;4.80;;;2.00;99.90;;;;;;5093796;28;20052;-77
2020/12/28 09:56:54;;;;;;;9.20;4.43;;;2.00;99.90;;;;;;5092349;28;20024;-76
2020/12/28 09:59:20;;;;;;;10.45;4.70;;;2.00;99.90;;;;;;5092918;28;20036;-76
2020/12/28 10:01:46;;;;;;;10.27;4.68;;;2.00;99.90;;;;;;5092419;28;20032;-76
2020/12/28 10:04:12;;;;;;;9.07;4.88;;;2.00;99.90;;;;;;5093206;28;20032;-76
2020/12/28 10:06:39;;;;;;;11.80;4.85;;;2.00;99.90;;;;;;5082773;28;20033;-76
2020/12/28 10:09:07;;;;;;;12.18;4.57;;;2.00;99.90;;;;;;5074395;28;20106;-75
2020/12/28 10:11:33;;;;;;;9.15;4.82;;;2.10;99.90;;;;;;5077074;28;20037;-76
2020/12/28 10:14:03;;;;;;;10.15;4.72;;;2.00;99.90;;;;;;5076879;28;20050;-75
2020/12/28 10:16:30;;;;;;;10.63;5.30;;;2.10;99.90;;;;;;5079629;28;20036;-76
2020/12/28 10:18:57;;;;;;;8.88;4.85;;;2.10;99.90;;;;;;5075957;28;20085;-76
2020/12/28 10:21:24;;;;;;;10.80;4.40;;;2.00;99.90;;;;;;5077804;28;20028;-77
2020/12/28 10:23:49;;;;;;;9.73;4.72;;;2.10;99.90;;;;;;5077708;28;20091;-75
2020/12/28 10:26:22;;;;;;;12.13;5.07;;;2.10;99.90;;;;;;5075781;28;20033;-75
2020/12/28 10:28:48;;;;;;;8.98;4.78;;;2.10;99.90;;;;;;5072929;28;20023;-77
2020/12/28 10:31:15;;;;;;;13.82;4.70;;;2.10;99.90;;;;;;5076118;28;20024;-76
2020/12/28 10:33:42;;;;;;;15.07;5.13;;;2.10;99.90;;;;;;5080543;28;20116;-76
2020/12/28 10:36:19;;;;;;;10.68;4.40;;;2.10;99.90;;;;;;5082265;28;20051;-75
2020/12/28 10:38:46;;;;;;;9.70;5.05;;;2.10;99.90;;;;;;5075615;28;20054;-75
2020/12/28 10:41:12;;;;;;;15.25;6.20;;;2.10;99.90;;;;;;5075389;28;20382;-76
2020/12/28 10:43:37;;;;;;;11.73;5.35;;;2.10;99.90;;;;;;5079110;28;20028;-75
2020/12/28 10:46:06;;;;;;;18.58;5.50;;;2.10;99.90;;;;;;5080149;28;20016;-75
2020/12/28 10:48:32;;;;;;;12.82;5.35;;;2.10;99.90;;;;;;5074927;28;20032;-76
2020/12/28 10:50:58;;;;;;;15.20;5.35;;;2.10;99.90;;;;;;5070560;28;20024;-75
2020/12/28 10:53:24;;;;;;;15.32;5.47;;;2.20;99.90;;;;;;5075403;28;20029;-76
2020/12/28 10:55:49;;;;;;;16.88;5.80;;;2.20;99.90;;;;;;5075082;28;20055;-75
2020/12/28 10:58:16;;;;;;;11.43;5.28;;;2.20;99.90;;;;;;5085694;28;20023;-75
2020/12/28 11:00:42;;;;;;;13.07;5.88;;;2.30;99.90;;;;;;5078011;28;20036;-75
2020/12/28 11:03:07;;;;;;;21.88;6.15;;;2.30;99.90;;;;;;5075680;28;20060;-75
2020/12/28 11:05:33;;;;;;;10.70;5.55;;;2.30;99.90;;;;;;5076597;28;20035;-74
2020/12/28 11:07:59;;;;;;;10.73;5.68;;;2.20;99.90;;;;;;5078654;28;20035;-74
2020/12/28 11:10:24;;;;;;;14.35;5.53;;;2.30;99.90;;;;;;5076963;28;20028;-75
2020/12/28 11:12:50;;;;;;;11.13;5.50;;;2.30;99.90;;;;;;5076395;28;20109;-75
2020/12/28 11:15:16;;;;;;;11.25;5.57;;;2.30;99.90;;;;;;5067935;28;20047;-76
2020/12/28 11:17:41;;;;;;;16.38;9.52;;;2.30;99.90;;;;;;5063206;28;20353;-76
2020/12/28 11:20:07;;;;;;;18.15;7.90;;;2.30;99.90;;;;;;5062196;28;20104;-74
2020/12/28 11:22:33;;;;;;;16.25;6.95;;;2.40;99.90;;;;;;5067501;28;20025;-73
2020/12/28 11:24:59;;;;;;;16.45;6.18;;;2.30;99.90;;;;;;5067946;28;20029;-74
2020/12/28 11:27:26;;;;;;;12.68;6.00;;;2.30;99.90;;;;;;5066842;28;20052;-74
2020/12/28 11:29:52;;;;;;;13.15;6.38;;;2.20;99.90;;;;;;5059880;28;20028;-75
2020/12/28 11:32:18;;;;;;;12.63;5.88;;;2.20;99.90;;;;;;5063309;28;20543;-75
2020/12/28 11:34:43;;;;;;;15.07;6.05;;;2.20;99.90;;;;;;5069567;28;20121;-73
2020/12/28 11:37:09;;;;;;;13.80;6.35;;;2.20;99.90;;;;;;5075788;28;20032;-76
2020/12/28 11:39:34;;;;;;;15.88;6.78;;;2.20;99.90;;;;;;5081326;28;20114;-76
2020/12/28 11:42:00;;;;;;;14.80;6.80;;;2.10;99.90;;;;;;5074017;28;20040;-74
2020/12/28 11:44:26;;;;;;;15.43;6.47;;;2.10;99.90;;;;;;5072802;28;20101;-74
2020/12/28 11:46:55;;;;;;;17.90;7.57;;;2.10;99.90;;;;;;5080428;28;20054;-73
2020/12/28 11:49:22;;;;;;;11.80;6.13;;;2.10;99.90;;;;;;5078605;28;20028;-75
2020/12/28 11:51:51;;;;;;;13.90;6.80;;;2.10;99.90;;;;;;5077418;28;20024;-76
2020/12/28 11:54:17;;;;;;;21.48;7.35;;;2.10;99.90;;;;;;5078776;28;20105;-78
2020/12/28 11:56:42;;;;;;;16.02;7.18;;;2.10;99.90;;;;;;5077449;28;20439;-77
2020/12/28 11:59:08;;;;;;;13.85;7.25;;;2.10;99.90;;;;;;5077881;28;20028;-78
2020/12/28 12:01:33;;;;;;;14.75;7.20;;;2.10;99.90;;;;;;5073180;28;20047;-77
2020/12/28 12:03:59;;;;;;;19.60;8.25;;;2.10;99.90;;;;;;5078752;28;20028;-76
2020/12/28 12:06:27;;;;;;;15.93;7.65;;;2.00;99.90;;;;;;5077057;28;20033;-77
2020/12/28 12:09:10;;;;;;;14.32;7.22;;;2.00;99.90;;;;;;5076112;28;20074;-76
2020/12/28 12:11:40;;;;;;;15.02;7.70;;;1.90;99.90;;;;;;5074267;28;20051;-77
2020/12/28 12:14:06;;;;;;;16.55;7.47;;;1.90;99.90;;;;;;5076065;28;20029;-76
2020/12/28 12:16:31;;;;;;;15.35;7.72;;;1.80;99.90;;;;;;5074348;28;20031;-77
2020/12/28 12:18:57;;;;;;;16.02;7.60;;;1.80;99.90;;;;;;5075852;28;20086;-75
2020/12/28 12:21:23;;;;;;;15.88;8.13;;;1.90;99.90;;;;;;5077510;28;20020;-76
2020/12/28 12:23:49;;;;;;;13.40;7.68;;;1.80;99.90;;;;;;5075235;28;20031;-75
2020/12/28 12:26:18;;;;;;;15.15;7.70;;;1.80;99.90;;;;;;5076631;28;20016;-76
2020/12/28 12:28:44;;;;;;;18.67;8.73;;;1.80;99.90;;;;;;5077266;28;20487;-76
2020/12/28 12:31:13;;;;;;;15.85;8.45;;;1.80;99.90;;;;;;5074056;28;20059;-77
2020/12/28 12:33:38;;;;;;;19.90;8.18;;;1.70;99.90;;;;;;5072725;28;20021;-77
2020/12/28 12:38:53;;;;;;;16.25;8.45;;;1.80;99.90;;;;;;5076732;28;20051;-76
2020/12/28 12:41:22;;;;;;;16.80;8.30;;;1.80;99.90;;;;;;5071140;28;20040;-77
2020/12/28 12:43:48;;;;;;;16.42;9.15;;;1.80;99.90;;;;;;5073726;28;20039;-75
2020/12/28 12:46:14;;;;;;;17.95;8.52;;;1.80;99.90;;;;;;5078539;28;20070;-78
2020/12/28 12:48:40;;;;;;;16.58;8.63;;;1.80;99.90;;;;;;5073611;28;20028;-77
2020/12/28 12:51:08;;;;;;;13.90;8.32;;;1.70;99.90;;;;;;5075390;28;20028;-76
2020/12/28 12:53:34;;;;;;;17.27;7.82;;;1.70;99.90;;;;;;5073892;28;20036;-77